sensor_id;sensor_type;location;lat;lon;timestamp;pressure;altitude;pressure_sealevel;temperature;humidity
62632;BME280;48703;51.248;-0.546;2022-07-10T00:01:16;102262;;;18.22;100.00
62632;BME280;48703;51.248;-0.546;2022-07-10T00:04:17;102266;;;18.12;100.00
62632;BME280;48703;51.248;-0.546;2022-07-10T00:07:19;102269;;;18.01;100.00
62632;BME280;48703;51.248;-0.546;2022-07-10T00:10:21;102271;;;17.95;100.00
62632;BME280;48703;51.248;-0.546;2022-07-10T00:13:23;102268;;;17.92;100.00
62632;BME280;48703;51.248;-0.546;2022-07-10T00:16:25;102265;;;17.89;100.00
62632;BME280;48703;51.248;-0.546;2022-07-10T00:19:27;102262;;;17.81;100.00
62632;BME280;48703;51.248;-0.546;2022-07-10T00:22:29;102262;;;17.71;100.00
62632;BME280;48703;51.248;-0.546;2022-07-10T00:25:31;102265;;;17.62;100.00
62632;BME280;48703;51.248;-0.546;2022-07-10T00:28:33;102264;;;17.58;100.00
62632;BME280;48703;51.248;-0.546;2022-07-10T00:31:35;102262;;;17.56;100.00
62632;BME280;48703;51.248;-0.546;2022-07-10T00:34:37;102262;;;17.49;100.00
62632;BME280;48703;51.248;-0.546;2022-07-10T00:37:38;102265;;;17.44;100.00
62632;BME280;48703;51.248;-0.546;2022-07-10T00:40:40;102263;;;17.33;100.00
62632;BME280;48703;51.248;-0.546;2022-07-10T00:43:58;102263;;;17.29;100.00
62632;BME280;48703;51.248;-0.546;2022-07-10T00:46:44;102261;;;17.25;100.00
62632;BME280;48703;51.248;-0.546;2022-07-10T00:49:46;102263;;;17.19;100.00
62632;BME280;48703;51.248;-0.546;2022-07-10T00:52:48;102265;;;17.12;100.00
62632;BME280;48703;51.248;-0.546;2022-07-10T00:55:50;102265;;;17.03;100.00
62632;BME280;48703;51.248;-0.546;2022-07-10T00:58:52;102260;;;17.00;100.00
62632;BME280;48703;51.248;-0.546;2022-07-10T01:01:54;102259;;;16.99;100.00
62632;BME280;48703;51.248;-0.546;2022-07-10T01:04:56;102258;;;17.00;100.00
62632;BME280;48703;51.248;-0.546;2022-07-10T01:07:58;102257;;;16.95;100.00
62632;BME280;48703;51.248;-0.546;2022-07-10T01:11:00;102256;;;16.92;100.00
62632;BME280;48703;51.248;-0.546;2022-07-10T01:14:02;102253;;;16.89;100.00
62632;BME280;48703;51.248;-0.546;2022-07-10T01:17:03;102251;;;16.79;100.00
62632;BME280;48703;51.248;-0.546;2022-07-10T01:20:05;102252;;;16.74;100.00
62632;BME280;48703;51.248;-0.546;2022-07-10T01:23:07;102253;;;16.71;100.00
62632;BME280;48703;51.248;-0.546;2022-07-10T01:26:09;102251;;;16.70;100.00
62632;BME280;48703;51.248;-0.546;2022-07-10T01:29:11;102249;;;16.68;100.00
62632;BME280;48703;51.248;-0.546;2022-07-10T01:32:13;102249;;;16.59;100.00
62632;BME280;48703;51.248;-0.546;2022-07-10T01:35:15;102250;;;16.54;100.00
62632;BME280;48703;51.248;-0.546;2022-07-10T01:38:17;102246;;;16.55;100.00
62632;BME280;48703;51.248;-0.546;2022-07-10T01:41:18;102243;;;16.47;100.00
62632;BME280;48703;51.248;-0.546;2022-07-10T01:44:20;102238;;;16.38;100.00
62632;BME280;48703;51.248;-0.546;2022-07-10T01:47:22;102235;;;16.33;100.00
62632;BME280;48703;51.248;-0.546;2022-07-10T01:50:24;102238;;;16.30;100.00
62632;BME280;48703;51.248;-0.546;2022-07-10T01:53:26;102240;;;16.33;100.00
62632;BME280;48703;51.248;-0.546;2022-07-10T01:56:28;102238;;;16.28;100.00
62632;BME280;48703;51.248;-0.546;2022-07-10T01:59:30;102235;;;16.24;100.00
62632;BME280;48703;51.248;-0.546;2022-07-10T02:02:32;102233;;;16.17;100.00
62632;BME280;48703;51.248;-0.546;2022-07-10T02:05:34;102230;;;16.10;100.00
62632;BME280;48703;51.248;-0.546;2022-07-10T02:08:36;102229;;;16.06;100.00
62632;BME280;48703;51.248;-0.546;2022-07-10T02:11:38;102228;;;16.00;100.00
62632;BME280;48703;51.248;-0.546;2022-07-10T02:14:40;102226;;;15.93;100.00
62632;BME280;48703;51.248;-0.546;2022-07-10T02:17:41;102227;;;15.86;100.00
62632;BME280;48703;51.248;-0.546;2022-07-10T02:20:43;102230;;;15.80;100.00
62632;BME280;48703;51.248;-0.546;2022-07-10T02:23:45;102229;;;15.81;100.00
62632;BME280;48703;51.248;-0.546;2022-07-10T02:26:47;102224;;;15.78;100.00
62632;BME280;48703;51.248;-0.546;2022-07-10T02:29:49;102222;;;15.73;100.00
62632;BME280;48703;51.248;-0.546;2022-07-10T02:32:51;102223;;;15.71;100.00
62632;BME280;48703;51.248;-0.546;2022-07-10T02:35:53;102223;;;15.67;100.00
62632;BME280;48703;51.248;-0.546;2022-07-10T02:38:55;102219;;;15.66;100.00
62632;BME280;48703;51.248;-0.546;2022-07-10T02:41:57;102219;;;15.67;100.00
62632;BME280;48703;51.248;-0.546;2022-07-10T02:44:58;102216;;;15.63;100.00
62632;BME280;48703;51.248;-0.546;2022-07-10T02:48:00;102213;;;15.59;100.00
62632;BME280;48703;51.248;-0.546;2022-07-10T02:51:02;102212;;;15.57;100.00
62632;BME280;48703;51.248;-0.546;2022-07-10T02:54:04;102209;;;15.53;100.00
62632;BME280;48703;51.248;-0.546;2022-07-10T02:57:06;102205;;;15.50;100.00
62632;BME280;48703;51.248;-0.546;2022-07-10T03:00:09;102200;;;15.47;100.00
62632;BME280;48703;51.248;-0.546;2022-07-10T03:03:10;102194;;;15.46;100.00
62632;BME280;48703;51.248;-0.546;2022-07-10T03:06:12;102192;;;15.45;100.00
62632;BME280;48703;51.248;-0.546;2022-07-10T03:09:14;102193;;;15.42;100.00
62632;BME280;48703;51.248;-0.546;2022-07-10T03:12:16;102187;;;15.39;100.00
62632;BME280;48703;51.248;-0.546;2022-07-10T03:15:18;102185;;;15.38;100.00
62632;BME280;48703;51.248;-0.546;2022-07-10T03:18:19;102186;;;15.36;100.00
62632;BME280;48703;51.248;-0.546;2022-07-10T03:21:21;102187;;;15.32;100.00
62632;BME280;48703;51.248;-0.546;2022-07-10T03:24:23;102184;;;15.30;100.00
62632;BME280;48703;51.248;-0.546;2022-07-10T03:27:25;102181;;;15.27;100.00
62632;BME280;48703;51.248;-0.546;2022-07-10T03:30:27;102178;;;15.24;100.00
62632;BME280;48703;51.248;-0.546;2022-07-10T03:33:29;102174;;;15.23;100.00
62632;BME280;48703;51.248;-0.546;2022-07-10T03:36:31;102174;;;15.15;100.00
62632;BME280;48703;51.248;-0.546;2022-07-10T03:39:33;102171;;;15.10;100.00
62632;BME280;48703;51.248;-0.546;2022-07-10T03:42:35;102172;;;15.10;100.00
62632;BME280;48703;51.248;-0.546;2022-07-10T03:45:37;102167;;;15.07;100.00
62632;BME280;48703;51.248;-0.546;2022-07-10T03:48:38;102163;;;15.04;100.00
62632;BME280;48703;51.248;-0.546;2022-07-10T03:51:40;102162;;;15.01;100.00
62632;BME280;48703;51.248;-0.546;2022-07-10T03:54:42;102163;;;14.98;100.00
62632;BME280;48703;51.248;-0.546;2022-07-10T03:57:44;102164;;;14.94;100.00
62632;BME280;48703;51.248;-0.546;2022-07-10T04:00:46;102163;;;14.92;100.00
62632;BME280;48703;51.248;-0.546;2022-07-10T04:03:48;102162;;;14.90;100.00
62632;BME280;48703;51.248;-0.546;2022-07-10T04:06:50;102164;;;14.90;100.00
62632;BME280;48703;51.248;-0.546;2022-07-10T04:09:52;102165;;;14.93;100.00
62632;BME280;48703;51.248;-0.546;2022-07-10T04:12:54;102162;;;14.91;100.00
62632;BME280;48703;51.248;-0.546;2022-07-10T04:15:56;102161;;;14.90;100.00
62632;BME280;48703;51.248;-0.546;2022-07-10T04:18:58;102164;;;14.90;100.00
62632;BME280;48703;51.248;-0.546;2022-07-10T04:22:00;102162;;;14.88;100.00
62632;BME280;48703;51.248;-0.546;2022-07-10T04:25:02;102161;;;14.89;100.00
62632;BME280;48703;51.248;-0.546;2022-07-10T04:28:03;102162;;;14.88;100.00
62632;BME280;48703;51.248;-0.546;2022-07-10T04:31:05;102162;;;14.87;100.00
62632;BME280;48703;51.248;-0.546;2022-07-10T04:34:07;102160;;;14.85;100.00
62632;BME280;48703;51.248;-0.546;2022-07-10T04:37:09;102160;;;14.85;100.00
62632;BME280;48703;51.248;-0.546;2022-07-10T04:40:11;102162;;;14.87;100.00
62632;BME280;48703;51.248;-0.546;2022-07-10T04:43:13;102167;;;14.87;100.00
62632;BME280;48703;51.248;-0.546;2022-07-10T04:46:15;102168;;;14.85;100.00
62632;BME280;48703;51.248;-0.546;2022-07-10T04:49:17;102172;;;14.88;100.00
62632;BME280;48703;51.248;-0.546;2022-07-10T04:52:18;102174;;;14.90;100.00
62632;BME280;48703;51.248;-0.546;2022-07-10T04:55:21;102174;;;14.92;100.00
62632;BME280;48703;51.248;-0.546;2022-07-10T04:58:22;102178;;;14.93;100.00
62632;BME280;48703;51.248;-0.546;2022-07-10T05:01:24;102181;;;14.94;100.00
62632;BME280;48703;51.248;-0.546;2022-07-10T05:04:26;102182;;;15.00;100.00
62632;BME280;48703;51.248;-0.546;2022-07-10T05:07:28;102184;;;15.01;100.00
62632;BME280;48703;51.248;-0.546;2022-07-10T05:10:30;102184;;;15.01;100.00
62632;BME280;48703;51.248;-0.546;2022-07-10T05:13:32;102183;;;15.01;100.00
62632;BME280;48703;51.248;-0.546;2022-07-10T05:16:34;102183;;;15.02;100.00
62632;BME280;48703;51.248;-0.546;2022-07-10T05:19:36;102181;;;15.04;100.00
62632;BME280;48703;51.248;-0.546;2022-07-10T05:22:38;102183;;;15.05;100.00
62632;BME280;48703;51.248;-0.546;2022-07-10T05:25:39;102185;;;15.12;100.00
62632;BME280;48703;51.248;-0.546;2022-07-10T05:28:41;102184;;;15.16;100.00
62632;BME280;48703;51.248;-0.546;2022-07-10T05:31:43;102180;;;15.20;100.00
62632;BME280;48703;51.248;-0.546;2022-07-10T05:34:45;102179;;;15.24;100.00
62632;BME280;48703;51.248;-0.546;2022-07-10T05:37:47;102178;;;15.29;100.00
62632;BME280;48703;51.248;-0.546;2022-07-10T05:40:49;102176;;;15.33;100.00
62632;BME280;48703;51.248;-0.546;2022-07-10T05:43:51;102177;;;15.36;100.00
62632;BME280;48703;51.248;-0.546;2022-07-10T05:46:53;102177;;;15.40;100.00
62632;BME280;48703;51.248;-0.546;2022-07-10T05:49:55;102177;;;15.44;100.00
62632;BME280;48703;51.248;-0.546;2022-07-10T05:52:57;102180;;;15.49;100.00
62632;BME280;48703;51.248;-0.546;2022-07-10T05:55:59;102180;;;15.51;100.00
62632;BME280;48703;51.248;-0.546;2022-07-10T05:59:00;102178;;;15.55;100.00
62632;BME280;48703;51.248;-0.546;2022-07-10T06:02:02;102177;;;15.60;100.00
62632;BME280;48703;51.248;-0.546;2022-07-10T06:05:04;102178;;;15.63;100.00
62632;BME280;48703;51.248;-0.546;2022-07-10T06:08:06;102184;;;15.64;100.00
62632;BME280;48703;51.248;-0.546;2022-07-10T06:11:08;102183;;;15.70;100.00
62632;BME280;48703;51.248;-0.546;2022-07-10T06:14:10;102183;;;15.75;100.00
62632;BME280;48703;51.248;-0.546;2022-07-10T06:17:12;102183;;;15.79;100.00
62632;BME280;48703;51.248;-0.546;2022-07-10T06:20:14;102184;;;15.83;100.00
62632;BME280;48703;51.248;-0.546;2022-07-10T06:23:16;102182;;;15.88;100.00
62632;BME280;48703;51.248;-0.546;2022-07-10T06:26:17;102182;;;15.91;100.00
62632;BME280;48703;51.248;-0.546;2022-07-10T06:29:19;102185;;;15.95;100.00
62632;BME280;48703;51.248;-0.546;2022-07-10T06:32:21;102183;;;15.99;100.00
62632;BME280;48703;51.248;-0.546;2022-07-10T06:35:23;102184;;;16.03;100.00
62632;BME280;48703;51.248;-0.546;2022-07-10T06:38:25;102187;;;16.07;100.00
62632;BME280;48703;51.248;-0.546;2022-07-10T06:41:27;102188;;;16.12;100.00
62632;BME280;48703;51.248;-0.546;2022-07-10T06:44:29;102189;;;16.15;100.00
62632;BME280;48703;51.248;-0.546;2022-07-10T06:47:31;102190;;;16.18;100.00
62632;BME280;48703;51.248;-0.546;2022-07-10T06:50:33;102192;;;16.22;100.00
62632;BME280;48703;51.248;-0.546;2022-07-10T06:53:35;102190;;;16.26;100.00
62632;BME280;48703;51.248;-0.546;2022-07-10T06:56:36;102190;;;16.31;100.00
62632;BME280;48703;51.248;-0.546;2022-07-10T06:59:38;102189;;;16.36;100.00
62632;BME280;48703;51.248;-0.546;2022-07-10T07:02:40;102190;;;16.39;100.00
62632;BME280;48703;51.248;-0.546;2022-07-10T07:05:42;102189;;;16.43;100.00
62632;BME280;48703;51.248;-0.546;2022-07-10T07:08:44;102187;;;16.47;100.00
62632;BME280;48703;51.248;-0.546;2022-07-10T07:11:46;102186;;;16.53;100.00
62632;BME280;48703;51.248;-0.546;2022-07-10T07:14:48;102185;;;16.57;100.00
62632;BME280;48703;51.248;-0.546;2022-07-10T07:17:50;102185;;;16.62;100.00
62632;BME280;48703;51.248;-0.546;2022-07-10T07:20:52;102183;;;16.66;100.00
62632;BME280;48703;51.248;-0.546;2022-07-10T07:23:54;102178;;;16.70;100.00
62632;BME280;48703;51.248;-0.546;2022-07-10T07:26:55;102178;;;16.74;100.00
62632;BME280;48703;51.248;-0.546;2022-07-10T07:30:00;102181;;;16.79;100.00
62632;BME280;48703;51.248;-0.546;2022-07-10T07:32:59;102179;;;16.82;100.00
62632;BME280;48703;51.248;-0.546;2022-07-10T07:36:01;102181;;;16.88;100.00
62632;BME280;48703;51.248;-0.546;2022-07-10T07:39:03;102183;;;16.95;100.00
62632;BME280;48703;51.248;-0.546;2022-07-10T07:42:05;102182;;;17.00;100.00
62632;BME280;48703;51.248;-0.546;2022-07-10T07:45:08;102182;;;17.07;100.00
62632;BME280;48703;51.248;-0.546;2022-07-10T07:48:09;102183;;;17.14;100.00
62632;BME280;48703;51.248;-0.546;2022-07-10T07:51:11;102179;;;17.21;100.00
62632;BME280;48703;51.248;-0.546;2022-07-10T07:54:13;102174;;;17.27;100.00
62632;BME280;48703;51.248;-0.546;2022-07-10T07:57:15;102174;;;17.37;100.00
62632;BME280;48703;51.248;-0.546;2022-07-10T08:00:16;102169;;;17.47;100.00
62632;BME280;48703;51.248;-0.546;2022-07-10T08:03:18;102165;;;17.58;100.00
62632;BME280;48703;51.248;-0.546;2022-07-10T08:06:20;102162;;;17.66;100.00
62632;BME280;48703;51.248;-0.546;2022-07-10T08:09:22;102160;;;17.73;99.99
62632;BME280;48703;51.248;-0.546;2022-07-10T08:12:24;102158;;;17.79;99.69
62632;BME280;48703;51.248;-0.546;2022-07-10T08:15:26;102158;;;17.85;99.62
62632;BME280;48703;51.248;-0.546;2022-07-10T08:18:28;102158;;;17.90;99.78
62632;BME280;48703;51.248;-0.546;2022-07-10T08:21:30;102155;;;17.98;99.52
62632;BME280;48703;51.248;-0.546;2022-07-10T08:24:32;102158;;;18.05;99.87
62632;BME280;48703;51.248;-0.546;2022-07-10T08:27:34;102155;;;18.17;99.72
62632;BME280;48703;51.248;-0.546;2022-07-10T08:30:35;102154;;;18.29;99.02
62632;BME280;48703;51.248;-0.546;2022-07-10T08:33:37;102153;;;18.36;98.53
62632;BME280;48703;51.248;-0.546;2022-07-10T08:36:39;102150;;;18.43;98.80
62632;BME280;48703;51.248;-0.546;2022-07-10T08:39:41;102147;;;18.53;98.82
62632;BME280;48703;51.248;-0.546;2022-07-10T08:42:43;102149;;;18.59;99.24
62632;BME280;48703;51.248;-0.546;2022-07-10T08:45:45;102153;;;18.70;98.73
62632;BME280;48703;51.248;-0.546;2022-07-10T08:48:48;102153;;;18.78;98.24
62632;BME280;48703;51.248;-0.546;2022-07-10T08:51:52;102155;;;18.83;97.71
62632;BME280;48703;51.248;-0.546;2022-07-10T08:54:51;102156;;;18.85;97.43
62632;BME280;48703;51.248;-0.546;2022-07-10T08:57:53;102154;;;18.91;98.24
62632;BME280;48703;51.248;-0.546;2022-07-10T09:00:55;102155;;;19.01;97.97
62632;BME280;48703;51.248;-0.546;2022-07-10T09:03:56;102152;;;19.05;97.18
62632;BME280;48703;51.248;-0.546;2022-07-10T09:06:58;102150;;;19.09;96.36
62632;BME280;48703;51.248;-0.546;2022-07-10T09:10:04;102141;;;19.17;96.44
62632;BME280;48703;51.248;-0.546;2022-07-10T09:13:02;102136;;;19.24;96.78
62632;BME280;48703;51.248;-0.546;2022-07-10T09:16:04;102132;;;19.35;96.16
62632;BME280;48703;51.248;-0.546;2022-07-10T09:19:14;102129;;;19.49;95.00
62632;BME280;48703;51.248;-0.546;2022-07-10T09:22:09;102126;;;19.59;94.01
62632;BME280;48703;51.248;-0.546;2022-07-10T09:25:11;102123;;;19.65;92.18
62632;BME280;48703;51.248;-0.546;2022-07-10T09:28:12;102122;;;19.70;92.59
62632;BME280;48703;51.248;-0.546;2022-07-10T09:31:14;102113;;;19.75;92.65
62632;BME280;48703;51.248;-0.546;2022-07-10T09:34:15;102115;;;19.85;91.02
62632;BME280;48703;51.248;-0.546;2022-07-10T09:37:18;102118;;;19.93;90.46
62632;BME280;48703;51.248;-0.546;2022-07-10T09:40:19;102118;;;19.99;88.60
62632;BME280;48703;51.248;-0.546;2022-07-10T09:43:21;102110;;;20.10;88.75
62632;BME280;48703;51.248;-0.546;2022-07-10T09:46:24;102108;;;20.16;88.70
62632;BME280;48703;51.248;-0.546;2022-07-10T09:49:27;102107;;;20.23;88.33
62632;BME280;48703;51.248;-0.546;2022-07-10T09:52:27;102105;;;20.35;88.48
62632;BME280;48703;51.248;-0.546;2022-07-10T09:55:29;102103;;;20.45;86.78
62632;BME280;48703;51.248;-0.546;2022-07-10T09:58:31;102102;;;20.55;87.03
62632;BME280;48703;51.248;-0.546;2022-07-10T10:01:33;102102;;;20.68;86.81
62632;BME280;48703;51.248;-0.546;2022-07-10T10:04:34;102100;;;20.81;86.05
62632;BME280;48703;51.248;-0.546;2022-07-10T10:07:37;102101;;;20.98;84.27
62632;BME280;48703;51.248;-0.546;2022-07-10T10:10:40;102103;;;21.10;83.20
62632;BME280;48703;51.248;-0.546;2022-07-10T10:13:40;102100;;;21.22;81.07
62632;BME280;48703;51.248;-0.546;2022-07-10T10:16:43;102099;;;21.30;81.31
62632;BME280;48703;51.248;-0.546;2022-07-10T10:19:44;102094;;;21.37;79.99
62632;BME280;48703;51.248;-0.546;2022-07-10T10:22:46;102091;;;21.46;81.33
62632;BME280;48703;51.248;-0.546;2022-07-10T10:25:48;102088;;;21.56;80.63
62632;BME280;48703;51.248;-0.546;2022-07-10T10:28:50;102086;;;21.68;81.08
62632;BME280;48703;51.248;-0.546;2022-07-10T10:31:52;102079;;;21.77;81.23
62632;BME280;48703;51.248;-0.546;2022-07-10T10:34:54;102074;;;21.84;79.54
62632;BME280;48703;51.248;-0.546;2022-07-10T10:37:55;102074;;;21.90;78.36
62632;BME280;48703;51.248;-0.546;2022-07-10T10:41:04;102075;;;21.98;78.98
62632;BME280;48703;51.248;-0.546;2022-07-10T10:44:18;102069;;;22.03;79.68
62632;BME280;48703;51.248;-0.546;2022-07-10T10:47:02;102068;;;22.04;79.32
62632;BME280;48703;51.248;-0.546;2022-07-10T10:50:03;102061;;;22.13;76.29
62632;BME280;48703;51.248;-0.546;2022-07-10T10:53:12;102057;;;22.20;77.50
62632;BME280;48703;51.248;-0.546;2022-07-10T10:56:21;102054;;;22.31;76.54
62632;BME280;48703;51.248;-0.546;2022-07-10T10:59:09;102051;;;22.38;77.77
62632;BME280;48703;51.248;-0.546;2022-07-10T11:02:27;102048;;;22.48;76.71
62632;BME280;48703;51.248;-0.546;2022-07-10T11:05:45;102047;;;22.57;76.98
62632;BME280;48703;51.248;-0.546;2022-07-10T11:08:35;102048;;;22.68;75.18
62632;BME280;48703;51.248;-0.546;2022-07-10T11:11:57;102049;;;22.77;74.84
62632;BME280;48703;51.248;-0.546;2022-07-10T11:14:18;102041;;;22.81;72.85
62632;BME280;48703;51.248;-0.546;2022-07-10T11:17:24;102039;;;22.91;71.99
62632;BME280;48703;51.248;-0.546;2022-07-10T11:20:22;102036;;;22.90;72.30
62632;BME280;48703;51.248;-0.546;2022-07-10T11:23:31;102032;;;22.90;70.44
62632;BME280;48703;51.248;-0.546;2022-07-10T11:26:29;102027;;;22.94;72.55
62632;BME280;48703;51.248;-0.546;2022-07-10T11:29:28;102021;;;23.02;72.30
62632;BME280;48703;51.248;-0.546;2022-07-10T11:32:30;102020;;;23.08;72.07
62632;BME280;48703;51.248;-0.546;2022-07-10T11:35:32;102020;;;23.18;71.17
62632;BME280;48703;51.248;-0.546;2022-07-10T11:38:33;102020;;;23.25;69.05
62632;BME280;48703;51.248;-0.546;2022-07-10T11:41:42;102019;;;23.31;67.58
62632;BME280;48703;51.248;-0.546;2022-07-10T11:44:37;102017;;;23.27;67.36
62632;BME280;48703;51.248;-0.546;2022-07-10T11:47:39;102016;;;23.20;68.08
62632;BME280;48703;51.248;-0.546;2022-07-10T11:50:41;102014;;;23.22;68.10
62632;BME280;48703;51.248;-0.546;2022-07-10T11:53:52;102014;;;23.25;69.20
62632;BME280;48703;51.248;-0.546;2022-07-10T11:56:46;102008;;;23.33;67.57
62632;BME280;48703;51.248;-0.546;2022-07-10T11:59:47;102006;;;23.40;66.44
62632;BME280;48703;51.248;-0.546;2022-07-10T12:02:49;102001;;;23.47;66.08
62632;BME280;48703;51.248;-0.546;2022-07-10T12:05:51;101999;;;23.53;68.22
62632;BME280;48703;51.248;-0.546;2022-07-10T12:08:53;102001;;;23.63;66.92
62632;BME280;48703;51.248;-0.546;2022-07-10T12:11:58;102002;;;23.70;64.22
62632;BME280;48703;51.248;-0.546;2022-07-10T12:14:56;102005;;;23.80;63.93
62632;BME280;48703;51.248;-0.546;2022-07-10T12:17:58;102001;;;23.88;64.84
62632;BME280;48703;51.248;-0.546;2022-07-10T12:21:00;102000;;;23.88;64.39
62632;BME280;48703;51.248;-0.546;2022-07-10T12:24:02;101997;;;23.83;62.92
62632;BME280;48703;51.248;-0.546;2022-07-10T12:27:04;101998;;;23.78;61.99
62632;BME280;48703;51.248;-0.546;2022-07-10T12:30:06;101999;;;23.87;63.55
62632;BME280;48703;51.248;-0.546;2022-07-10T12:33:08;101997;;;24.07;61.96
62632;BME280;48703;51.248;-0.546;2022-07-10T12:36:10;101996;;;24.17;60.82
62632;BME280;48703;51.248;-0.546;2022-07-10T12:39:12;101994;;;24.14;61.73
62632;BME280;48703;51.248;-0.546;2022-07-10T12:42:23;101988;;;24.17;59.46
62632;BME280;48703;51.248;-0.546;2022-07-10T12:45:15;101979;;;24.23;59.93
62632;BME280;48703;51.248;-0.546;2022-07-10T12:48:21;101979;;;24.28;58.07
62632;BME280;48703;51.248;-0.546;2022-07-10T12:51:20;101977;;;24.28;56.20
62632;BME280;48703;51.248;-0.546;2022-07-10T12:54:37;101975;;;24.26;56.86
62632;BME280;48703;51.248;-0.546;2022-07-10T12:57:23;101970;;;24.23;59.46
62632;BME280;48703;51.248;-0.546;2022-07-10T13:00:25;101968;;;24.26;57.60
62632;BME280;48703;51.248;-0.546;2022-07-10T13:03:27;101968;;;24.38;55.60
62632;BME280;48703;51.248;-0.546;2022-07-10T13:06:29;101967;;;24.54;56.68
62632;BME280;48703;51.248;-0.546;2022-07-10T13:09:31;101967;;;24.71;56.45
62632;BME280;48703;51.248;-0.546;2022-07-10T13:12:32;101962;;;24.79;55.46
62632;BME280;48703;51.248;-0.546;2022-07-10T13:15:34;101964;;;24.83;56.20
62632;BME280;48703;51.248;-0.546;2022-07-10T13:18:36;101962;;;24.88;55.00
62632;BME280;48703;51.248;-0.546;2022-07-10T13:21:38;101952;;;25.03;54.74
62632;BME280;48703;51.248;-0.546;2022-07-10T13:24:40;101955;;;25.19;54.18
62632;BME280;48703;51.248;-0.546;2022-07-10T13:27:42;101954;;;25.33;55.03
62632;BME280;48703;51.248;-0.546;2022-07-10T13:30:44;101953;;;25.43;54.46
62632;BME280;48703;51.248;-0.546;2022-07-10T13:33:46;101946;;;25.50;53.76
62632;BME280;48703;51.248;-0.546;2022-07-10T13:36:48;101945;;;25.58;54.12
62632;BME280;48703;51.248;-0.546;2022-07-10T13:39:49;101946;;;25.72;54.48
62632;BME280;48703;51.248;-0.546;2022-07-10T13:42:51;101944;;;25.84;52.35
62632;BME280;48703;51.248;-0.546;2022-07-10T13:45:53;101939;;;25.86;53.66
62632;BME280;48703;51.248;-0.546;2022-07-10T13:48:55;101935;;;25.79;54.52
62632;BME280;48703;51.248;-0.546;2022-07-10T13:51:57;101935;;;25.87;56.75
62632;BME280;48703;51.248;-0.546;2022-07-10T13:54:59;101930;;;25.92;54.28
62632;BME280;48703;51.248;-0.546;2022-07-10T13:58:01;101928;;;25.98;52.47
62632;BME280;48703;51.248;-0.546;2022-07-10T14:01:03;101923;;;25.94;51.54
62632;BME280;48703;51.248;-0.546;2022-07-10T14:04:05;101921;;;25.86;50.33
62632;BME280;48703;51.248;-0.546;2022-07-10T14:07:07;101917;;;25.86;52.91
62632;BME280;48703;51.248;-0.546;2022-07-10T14:10:09;101912;;;25.92;51.95
62632;BME280;48703;51.248;-0.546;2022-07-10T14:13:10;101907;;;26.10;55.08
62632;BME280;48703;51.248;-0.546;2022-07-10T14:16:12;101904;;;26.25;52.45
62632;BME280;48703;51.248;-0.546;2022-07-10T14:19:14;101903;;;26.49;51.02
62632;BME280;48703;51.248;-0.546;2022-07-10T14:22:16;101897;;;26.64;51.53
62632;BME280;48703;51.248;-0.546;2022-07-10T14:25:18;101896;;;26.80;49.30
62632;BME280;48703;51.248;-0.546;2022-07-10T14:28:20;101894;;;26.89;48.45
62632;BME280;48703;51.248;-0.546;2022-07-10T14:31:22;101893;;;26.95;45.35
62632;BME280;48703;51.248;-0.546;2022-07-10T14:34:24;101893;;;27.04;47.40
62632;BME280;48703;51.248;-0.546;2022-07-10T14:37:26;101891;;;27.07;46.38
62632;BME280;48703;51.248;-0.546;2022-07-10T14:40:28;101891;;;27.15;46.04
62632;BME280;48703;51.248;-0.546;2022-07-10T14:43:29;101884;;;27.21;46.29
62632;BME280;48703;51.248;-0.546;2022-07-10T14:46:31;101883;;;27.24;46.60
62632;BME280;48703;51.248;-0.546;2022-07-10T14:49:33;101888;;;27.18;46.81
62632;BME280;48703;51.248;-0.546;2022-07-10T14:52:35;101886;;;27.18;45.90
62632;BME280;48703;51.248;-0.546;2022-07-10T14:55:37;101878;;;27.19;45.69
62632;BME280;48703;51.248;-0.546;2022-07-10T14:58:39;101879;;;27.22;45.22
62632;BME280;48703;51.248;-0.546;2022-07-10T15:01:41;101881;;;27.23;44.63
62632;BME280;48703;51.248;-0.546;2022-07-10T15:04:43;101879;;;27.20;46.02
62632;BME280;48703;51.248;-0.546;2022-07-10T15:07:45;101877;;;27.36;45.89
62632;BME280;48703;51.248;-0.546;2022-07-10T15:10:46;101872;;;27.55;46.62
62632;BME280;48703;51.248;-0.546;2022-07-10T15:13:48;101870;;;27.75;46.28
62632;BME280;48703;51.248;-0.546;2022-07-10T15:16:50;101868;;;27.86;44.88
62632;BME280;48703;51.248;-0.546;2022-07-10T15:19:52;101862;;;28.00;45.52
62632;BME280;48703;51.248;-0.546;2022-07-10T15:22:54;101858;;;28.11;43.49
62632;BME280;48703;51.248;-0.546;2022-07-10T15:25:56;101858;;;28.15;43.34
62632;BME280;48703;51.248;-0.546;2022-07-10T15:28:58;101860;;;28.25;42.12
62632;BME280;48703;51.248;-0.546;2022-07-10T15:32:00;101857;;;28.35;42.19
62632;BME280;48703;51.248;-0.546;2022-07-10T15:35:02;101856;;;28.39;42.33
62632;BME280;48703;51.248;-0.546;2022-07-10T15:38:04;101855;;;28.38;40.93
62632;BME280;48703;51.248;-0.546;2022-07-10T15:41:05;101848;;;28.31;41.67
62632;BME280;48703;51.248;-0.546;2022-07-10T15:44:07;101844;;;28.35;42.07
62632;BME280;48703;51.248;-0.546;2022-07-10T15:47:09;101839;;;28.45;40.51
62632;BME280;48703;51.248;-0.546;2022-07-10T15:50:11;101835;;;28.58;43.36
62632;BME280;48703;51.248;-0.546;2022-07-10T15:53:13;101834;;;28.72;39.59
62632;BME280;48703;51.248;-0.546;2022-07-10T15:56:15;101833;;;28.81;38.91
62632;BME280;48703;51.248;-0.546;2022-07-10T15:59:17;101830;;;28.92;42.43
62632;BME280;48703;51.248;-0.546;2022-07-10T16:02:19;101830;;;29.07;45.56
62632;BME280;48703;51.248;-0.546;2022-07-10T16:05:21;101825;;;29.16;45.69
62632;BME280;48703;51.248;-0.546;2022-07-10T16:08:23;101820;;;29.16;44.24